Time;durP1;ratioP1;P1;durP2;ratioP2;P2;SDS_P1;SDS_P2;PMS_P1;PMS_P2;Temp;Humidity;BMP_temperature;BMP_pressure;BME280_temperature;BME280_humidity;BME280_pressure;Samples;Min_cycle;Max_cycle;Signal;HPM_P1;HPM_P2
2023/10/11 00:00:39;;;;;;;10.35;5.68;;;;;;;;;;5055670;28;20060;-71
2023/10/11 00:05:55;;;;;;;10.77;5.45;;;;;;;;;;5039776;28;20602;-71
2023/10/11 00:08:29;;;;;;;12.50;5.25;;;;;;;;;;5028467;28;20056;-71
2023/10/11 00:10:58;;;;;;;13.75;5.38;;;;;;;;;;5036366;28;20398;-71
2023/10/11 00:13:25;;;;;;;11.30;4.97;;;;;;;;;;5032007;28;20096;-71
2023/10/11 00:15:52;;;;;;;12.05;5.32;;;;;;;;;;5038732;28;20124;-71
2023/10/11 00:18:20;;;;;;;12.18;5.30;;;;;;;;;;5059468;28;20264;-70
2023/10/11 00:20:50;;;;;;;9.20;5.40;;;;;;;;;;5044736;28;20052;-71
2023/10/11 00:23:19;;;;;;;11.82;5.15;;;;;;;;;;5045382;28;20055;-70
2023/10/11 00:25:45;;;;;;;10.82;5.40;;;;;;;;;;5033481;28;20108;-72
2023/10/11 00:28:14;;;;;;;9.50;5.45;;;;;;;;;;5061416;28;20069;-72
2023/10/11 00:30:40;;;;;;;11.85;5.47;;;;;;;;;;5070824;28;20114;-70
2023/10/11 00:33:10;;;;;;;8.30;4.65;;;;;;;;;;5068047;28;20070;-71
2023/10/11 00:35:48;;;;;;;13.05;4.80;;;;;;;;;;5062337;28;20047;-71
2023/10/11 00:38:18;;;;;;;10.77;4.82;;;;;;;;;;5065244;28;20545;-72
2023/10/11 00:40:46;;;;;;;13.25;5.47;;;;;;;;;;5056553;28;20048;-72
2023/10/11 00:43:13;;;;;;;12.23;5.07;;;;;;;;;;5055510;28;20044;-73
2023/10/11 00:45:40;;;;;;;10.70;5.15;;;;;;;;;;5037536;28;20854;-72
2023/10/11 00:48:10;;;;;;;8.90;4.88;;;;;;;;;;5062126;28;20040;-71
2023/10/11 00:50:37;;;;;;;8.93;4.70;;;;;;;;;;5062966;28;20528;-72
2023/10/11 00:53:04;;;;;;;9.05;4.85;;;;;;;;;;5057996;28;20497;-71
2023/10/11 00:55:31;;;;;;;10.00;4.70;;;;;;;;;;5051157;28;20399;-71
2023/10/11 00:57:58;;;;;;;9.38;4.50;;;;;;;;;;5057003;28;20165;-71
2023/10/11 01:00:25;;;;;;;11.95;4.93;;;;;;;;;;5056129;28;20051;-71
2023/10/11 01:02:55;;;;;;;11.35;4.90;;;;;;;;;;5049704;28;20068;-70
2023/10/11 01:05:22;;;;;;;12.05;5.28;;;;;;;;;;5064069;28;20148;-71
2023/10/11 01:07:52;;;;;;;12.13;5.50;;;;;;;;;;5050608;28;20044;-71
2023/10/11 01:10:22;;;;;;;10.52;4.95;;;;;;;;;;5061662;28;20113;-71
2023/10/11 01:12:49;;;;;;;13.93;5.38;;;;;;;;;;5059185;28;20052;-71
2023/10/11 01:15:19;;;;;;;8.18;4.55;;;;;;;;;;5053551;28;20415;-70
2023/10/11 01:17:46;;;;;;;10.65;5.05;;;;;;;;;;5051173;28;20048;-71
2023/10/11 01:20:17;;;;;;;10.80;4.72;;;;;;;;;;5055275;28;20059;-72
2023/10/11 01:22:43;;;;;;;9.55;4.32;;;;;;;;;;5063347;28;20074;-70
2023/10/11 01:25:18;;;;;;;12.02;4.80;;;;;;;;;;5054908;28;20045;-71
2023/10/11 01:27:45;;;;;;;14.73;5.05;;;;;;;;;;5058925;28;20048;-72
2023/10/11 01:30:12;;;;;;;11.07;4.80;;;;;;;;;;5032729;28;20748;-71
2023/10/11 01:32:41;;;;;;;10.52;5.00;;;;;;;;;;5065294;28;20133;-70
2023/10/11 01:35:12;;;;;;;11.93;5.10;;;;;;;;;;5063813;28;20044;-73
2023/10/11 01:37:42;;;;;;;10.70;5.13;;;;;;;;;;5050278;28;20135;-71
2023/10/11 01:40:09;;;;;;;10.68;5.25;;;;;;;;;;5063715;28;20048;-71
2023/10/11 01:42:41;;;;;;;9.88;5.45;;;;;;;;;;5047974;28;20059;-71
2023/10/11 01:45:08;;;;;;;11.43;5.07;;;;;;;;;;5051579;28;20072;-71
2023/10/11 01:47:35;;;;;;;11.45;5.88;;;;;;;;;;5065379;28;20169;-71
2023/10/11 01:50:01;;;;;;;11.45;4.90;;;;;;;;;;5053322;28;20385;-71
2023/10/11 01:52:27;;;;;;;13.30;5.22;;;;;;;;;;5050698;28;20053;-71
2023/10/11 01:54:55;;;;;;;9.65;4.57;;;;;;;;;;5044997;28;20052;-72
2023/10/11 01:57:27;;;;;;;9.55;4.38;;;;;;;;;;5053658;28;20080;-72
2023/10/11 01:59:54;;;;;;;11.43;5.20;;;;;;;;;;5035294;28;20122;-71
2023/10/11 02:02:27;;;;;;;9.50;5.07;;;;;;;;;;5055994;28;20474;-70
2023/10/11 02:04:57;;;;;;;9.68;4.78;;;;;;;;;;5062321;28;20137;-70
2023/10/11 02:07:23;;;;;;;9.20;4.70;;;;;;;;;;5065177;28;20048;-72
2023/10/11 02:09:50;;;;;;;13.75;5.15;;;;;;;;;;5050716;28;20052;-71
2023/10/11 02:12:19;;;;;;;8.52;5.20;;;;;;;;;;5048197;28;20070;-72
2023/10/11 02:14:45;;;;;;;8.88;4.88;;;;;;;;;;5040869;28;20052;-71
2023/10/11 02:17:23;;;;;;;10.23;5.13;;;;;;;;;;5070369;28;20044;-75
2023/10/11 02:19:50;;;;;;;13.90;5.75;;;;;;;;;;5069215;28;20496;-71
2023/10/11 02:22:18;;;;;;;9.88;5.25;;;;;;;;;;5051612;28;20049;-71
2023/10/11 02:24:45;;;;;;;11.38;5.15;;;;;;;;;;5033230;28;20641;-72
2023/10/11 02:27:17;;;;;;;11.88;5.18;;;;;;;;;;5041416;28;20084;-72
2023/10/11 02:29:47;;;;;;;10.30;5.20;;;;;;;;;;5056584;28;20158;-71
2023/10/11 02:32:14;;;;;;;10.13;5.47;;;;;;;;;;5063373;28;20064;-71
2023/10/11 02:34:41;;;;;;;13.18;4.80;;;;;;;;;;5036714;28;20543;-71
2023/10/11 02:37:10;;;;;;;11.93;5.78;;;;;;;;;;5058682;28;20444;-71
2023/10/11 02:39:44;;;;;;;12.18;5.68;;;;;;;;;;5043701;28;20048;-71
2023/10/11 02:42:10;;;;;;;11.02;5.63;;;;;;;;;;5062387;28;20045;-71
2023/10/11 02:44:39;;;;;;;11.70;5.03;;;;;;;;;;5064494;28;20489;-71
2023/10/11 02:47:08;;;;;;;11.07;5.68;;;;;;;;;;5055292;28;20847;-72
2023/10/11 02:49:35;;;;;;;11.60;5.23;;;;;;;;;;5067542;28;20044;-71
2023/10/11 02:52:07;;;;;;;9.30;4.68;;;;;;;;;;5029315;28;20045;-72
2023/10/11 02:54:38;;;;;;;14.98;5.95;;;;;;;;;;5058696;28;20072;-72
2023/10/11 02:57:06;;;;;;;13.57;6.10;;;;;;;;;;5064322;28;20040;-71
2023/10/11 02:59:33;;;;;;;10.30;5.43;;;;;;;;;;5068012;28;20265;-71
2023/10/11 03:01:59;;;;;;;13.05;6.10;;;;;;;;;;5062168;28;20045;-71
2023/10/11 03:04:32;;;;;;;13.82;5.93;;;;;;;;;;5061142;28;20082;-70
2023/10/11 03:07:00;;;;;;;11.18;5.40;;;;;;;;;;5038453;28;20448;-70
2023/10/11 03:09:27;;;;;;;9.25;5.28;;;;;;;;;;5038403;28;20040;-71
2023/10/11 03:11:56;;;;;;;10.63;5.40;;;;;;;;;;5058817;28;20040;-71
2023/10/11 03:14:23;;;;;;;11.30;5.85;;;;;;;;;;5064072;28;20048;-72
2023/10/11 03:16:56;;;;;;;12.00;5.80;;;;;;;;;;5063590;28;20116;-71
2023/10/11 03:19:24;;;;;;;13.20;6.03;;;;;;;;;;5060087;28;20114;-74
2023/10/11 03:21:53;;;;;;;15.38;6.22;;;;;;;;;;5030384;28;20060;-73
2023/10/11 03:24:20;;;;;;;10.90;5.47;;;;;;;;;;5070738;28;20053;-72
2023/10/11 03:26:48;;;;;;;9.45;5.63;;;;;;;;;;5057294;28;20124;-72
2023/10/11 03:29:17;;;;;;;12.75;6.07;;;;;;;;;;5065989;28;20163;-71
2023/10/11 03:31:45;;;;;;;13.93;6.53;;;;;;;;;;5079142;28;20045;-72
2023/10/11 03:34:11;;;;;;;12.75;6.03;;;;;;;;;;5054636;28;20036;-72
2023/10/11 03:36:51;;;;;;;11.50;7.13;;;;;;;;;;5066328;28;20043;-71
2023/10/11 03:39:28;;;;;;;10.00;5.97;;;;;;;;;;5050217;28;20095;-72
2023/10/11 03:42:07;;;;;;;11.02;6.32;;;;;;;;;;5067448;28;20444;-73
2023/10/11 03:44:39;;;;;;;12.20;6.05;;;;;;;;;;5057033;28;20560;-71
2023/10/11 03:47:10;;;;;;;11.20;6.35;;;;;;;;;;5047761;28;20051;-71
2023/10/11 03:52:32;;;;;;;10.77;6.25;;;;;;;;;;5058713;28;20068;-71
2023/10/11 03:55:09;;;;;;;12.75;5.88;;;;;;;;;;5061069;28;20048;-71
2023/10/11 03:57:40;;;;;;;10.80;5.75;;;;;;;;;;5047068;28;20059;-72
2023/10/11 04:00:46;;;;;;;11.20;5.85;;;;;;;;;;5064818;28;20495;-72
2023/10/11 04:03:07;;;;;;;11.60;6.90;;;;;;;;;;5039159;28;20132;-71
2023/10/11 04:05:34;;;;;;;12.68;6.35;;;;;;;;;;5063850;28;20413;-72
2023/10/11 04:08:05;;;;;;;11.00;6.68;;;;;;;;;;5059980;28;20413;-72
2023/10/11 04:10:39;;;;;;;13.30;7.72;;;;;;;;;;5053993;28;20056;-73
2023/10/11 04:13:15;;;;;;;16.10;6.93;;;;;;;;;;5065272;28;20056;-72
2023/10/11 04:15:42;;;;;;;14.50;6.88;;;;;;;;;;5053390;28;20147;-72
2023/10/11 04:18:43;;;;;;;11.20;6.15;;;;;;;;;;5052715;28;20080;-72
2023/10/11 04:23:39;;;;;;;10.55;5.85;;;;;;;;;;5076657;28;20051;-72
2023/10/11 04:26:16;;;;;;;12.45;6.50;;;;;;;;;;5062039;28;20490;-71
2023/10/11 04:28:43;;;;;;;9.68;6.20;;;;;;;;;;5072419;28;20144;-71
2023/10/11 04:33:54;;;;;;;18.33;6.60;;;;;;;;;;5064497;28;20056;-72
2023/10/11 04:36:21;;;;;;;12.65;6.82;;;;;;;;;;5062137;28;20056;-71
2023/10/11 04:38:50;;;;;;;12.70;6.82;;;;;;;;;;5058046;28;20055;-71
2023/10/11 04:41:19;;;;;;;12.70;6.65;;;;;;;;;;5068696;28;20450;-70
2023/10/11 04:44:03;;;;;;;15.93;6.75;;;;;;;;;;5057389;28;20186;-72
2023/10/11 04:46:30;;;;;;;13.73;7.45;;;;;;;;;;5064777;28;20048;-71
2023/10/11 04:49:17;;;;;;;12.00;6.65;;;;;;;;;;5040609;28;20056;-71
2023/10/11 04:51:46;;;;;;;14.70;6.75;;;;;;;;;;5062515;28;20072;-71
2023/10/11 04:54:13;;;;;;;18.67;7.70;;;;;;;;;;5054904;28;20449;-71
2023/10/11 05:04:16;;;;;;;14.38;6.82;;;;;;;;;;5066280;28;20435;-71
2023/10/11 05:06:44;;;;;;;13.93;6.57;;;;;;;;;;5056765;28;20088;-71
2023/10/11 05:11:50;;;;;;;14.30;6.88;;;;;;;;;;5038766;28;20410;-71
2023/10/11 05:14:28;;;;;;;12.63;7.35;;;;;;;;;;5066290;28;20102;-70
2023/10/11 05:19:45;;;;;;;14.02;7.35;;;;;;;;;;5063872;28;19931;-71
2023/10/11 05:30:13;;;;;;;14.48;7.18;;;;;;;;;;5059016;28;20473;-70
2023/10/11 05:52:14;;;;;;;11.55;7.00;;;;;;;;;;5052775;28;20651;-71
2023/10/11 05:54:40;;;;;;;18.20;7.88;;;;;;;;;;5039157;28;20496;-71
2023/10/11 05:57:07;;;;;;;12.50;7.32;;;;;;;;;;5069855;28;20052;-70
2023/10/11 05:59:37;;;;;;;15.75;7.70;;;;;;;;;;5043409;28;20110;-70
2023/10/11 06:02:07;;;;;;;18.27;7.95;;;;;;;;;;5067057;28;20090;-72
2023/10/11 06:04:39;;;;;;;15.82;8.20;;;;;;;;;;5035293;28;20131;-71
2023/10/11 06:07:06;;;;;;;17.85;8.40;;;;;;;;;;5054677;28;20048;-73
2023/10/11 06:09:39;;;;;;;21.77;8.68;;;;;;;;;;5063891;28;20168;-72
2023/10/11 06:12:22;;;;;;;16.67;8.43;;;;;;;;;;5041163;28;20402;-72
2023/10/11 06:14:52;;;;;;;17.20;8.00;;;;;;;;;;5049611;28;20051;-72
2023/10/11 06:17:21;;;;;;;13.30;7.70;;;;;;;;;;5038952;28;20059;-74
2023/10/11 06:19:53;;;;;;;13.00;7.85;;;;;;;;;;5059945;28;20421;-73
2023/10/11 06:22:21;;;;;;;15.18;7.57;;;;;;;;;;5044158;28;20044;-73
2023/10/11 06:24:49;;;;;;;15.98;8.20;;;;;;;;;;5052299;28;20323;-72
2023/10/11 06:30:06;;;;;;;15.55;7.93;;;;;;;;;;5084541;28;20075;-72
2023/10/11 06:32:35;;;;;;;15.23;7.15;;;;;;;;;;5040086;28;20052;-73
2023/10/11 06:35:05;;;;;;;15.45;7.35;;;;;;;;;;5059395;28;20135;-70
2023/10/11 06:37:35;;;;;;;19.98;9.10;;;;;;;;;;5063301;28;20154;-70
2023/10/11 06:42:31;;;;;;;15.38;8.13;;;;;;;;;;5055052;28;20056;-71
2023/10/11 06:44:59;;;;;;;16.98;8.43;;;;;;;;;;5042504;28;20063;-72
2023/10/11 06:47:27;;;;;;;16.00;8.90;;;;;;;;;;5045258;28;20056;-72
2023/10/11 06:49:55;;;;;;;17.35;8.15;;;;;;;;;;5057429;28;20048;-72
2023/10/11 06:52:25;;;;;;;14.73;8.10;;;;;;;;;;5045192;28;20040;-71
2023/10/11 06:57:41;;;;;;;15.77;9.05;;;;;;;;;;5047125;28;20113;-72
2023/10/11 07:00:21;;;;;;;16.55;8.70;;;;;;;;;;5058371;28;20037;-72
2023/10/11 07:02:49;;;;;;;18.63;8.00;;;;;;;;;;5047000;28;20045;-71
2023/10/11 07:05:19;;;;;;;14.40;8.13;;;;;;;;;;5062794;28;20048;-71
2023/10/11 07:07:48;;;;;;;16.90;8.48;;;;;;;;;;5058143;28;20043;-72
2023/10/11 07:10:33;;;;;;;20.88;9.68;;;;;;;;;;5065240;28;20052;-70
2023/10/11 07:13:12;;;;;;;14.77;8.98;;;;;;;;;;5053209;28;20139;-71
2023/10/11 07:15:40;;;;;;;20.95;9.55;;;;;;;;;;5045463;28;20050;-71
2023/10/11 07:18:25;;;;;;;18.10;8.60;;;;;;;;;;5043398;28;20074;-72
2023/10/11 07:21:09;;;;;;;14.00;8.68;;;;;;;;;;5056633;28;20091;-72
2023/10/11 07:26:48;;;;;;;21.88;9.52;;;;;;;;;;5058076;28;20041;-72
2023/10/11 07:29:13;;;;;;;18.27;9.10;;;;;;;;;;5046685;28;20052;-72
2023/10/11 07:31:48;;;;;;;17.10;9.00;;;;;;;;;;5056689;28;20110;-72
2023/10/11 07:34:20;;;;;;;20.17;9.70;;;;;;;;;;5041727;28;20094;-72
2023/10/11 07:36:50;;;;;;;15.82;9.60;;;;;;;;;;5051724;28;20049;-72
2023/10/11 07:39:19;;;;;;;17.98;9.15;;;;;;;;;;5049159;28;20051;-72
2023/10/11 07:41:48;;;;;;;21.45;9.55;;;;;;;;;;5067002;28;20052;-72
2023/10/11 07:44:18;;;;;;;17.65;10.00;;;;;;;;;;5039738;28;20359;-72
2023/10/11 07:46:48;;;;;;;16.67;9.48;;;;;;;;;;5063456;28;20052;-72
2023/10/11 07:49:22;;;;;;;21.42;9.75;;;;;;;;;;5043733;28;20059;-72
2023/10/11 07:51:59;;;;;;;23.33;10.40;;;;;;;;;;5050520;28;20094;-72
2023/10/11 07:54:26;;;;;;;17.38;9.85;;;;;;;;;;5042055;28;20055;-72
2023/10/11 07:56:57;;;;;;;18.92;9.88;;;;;;;;;;5063209;28;20718;-72
2023/10/11 07:59:28;;;;;;;16.30;9.75;;;;;;;;;;5061945;28;20057;-72
2023/10/11 08:01:56;;;;;;;21.65;11.68;;;;;;;;;;5056320;28;20049;-72
2023/10/11 08:04:28;;;;;;;19.17;10.15;;;;;;;;;;5059045;28;20040;-72
2023/10/11 08:07:03;;;;;;;18.50;9.90;;;;;;;;;;5055046;28;20548;-73
2023/10/11 08:09:52;;;;;;;17.63;10.07;;;;;;;;;;5049401;28;20055;-72
2023/10/11 08:12:21;;;;;;;20.88;10.40;;;;;;;;;;5047155;28;20504;-72
2023/10/11 08:14:48;;;;;;;18.13;9.50;;;;;;;;;;5070970;28;20066;-72
2023/10/11 08:17:15;;;;;;;20.83;10.73;;;;;;;;;;5056911;28;20616;-73
2023/10/11 08:19:44;;;;;;;17.05;9.18;;;;;;;;;;5080104;28;20049;-73
2023/10/11 08:22:14;;;;;;;20.35;12.00;;;;;;;;;;5064491;28;20137;-72
2023/10/11 08:24:48;;;;;;;25.02;11.10;;;;;;;;;;5055399;28;20052;-72
2023/10/11 08:27:28;;;;;;;24.98;10.93;;;;;;;;;;5057530;28;20406;-72
2023/10/11 08:30:07;;;;;;;18.95;11.13;;;;;;;;;;5052449;28;20548;-73
2023/10/11 08:32:38;;;;;;;22.10;10.82;;;;;;;;;;5072082;28;20580;-73
2023/10/11 08:35:09;;;;;;;23.30;9.98;;;;;;;;;;5057499;28;20459;-72
2023/10/11 08:37:37;;;;;;;23.90;11.75;;;;;;;;;;5063917;28;20051;-72
2023/10/11 08:40:10;;;;;;;;;;;;;;;;;;5058296;28;20076;-72
2023/10/11 08:42:38;;;;;;;27.48;10.93;;;;;;;;;;5044830;28;20393;-72
2023/10/11 08:45:07;;;;;;;22.65;11.50;;;;;;;;;;5066240;28;20086;-72
2023/10/11 08:47:34;;;;;;;24.27;11.68;;;;;;;;;;5052989;28;20040;-72
2023/10/11 08:50:00;;;;;;;19.30;11.43;;;;;;;;;;5082057;28;20388;-72
2023/10/11 08:52:30;;;;;;;21.70;12.50;;;;;;;;;;5058077;28;20139;-73
2023/10/11 08:54:59;;;;;;;25.63;13.95;;;;;;;;;;5040430;28;20563;-72
2023/10/11 08:57:25;;;;;;;;;;;;;;;;;;5073055;28;20052;-72
2023/10/11 08:59:56;;;;;;;23.35;14.65;;;;;;;;;;5055913;28;20424;-73
2023/10/11 09:02:24;;;;;;;28.60;13.73;;;;;;;;;;5061586;28;20045;-73
2023/10/11 09:04:55;;;;;;;24.10;13.23;;;;;;;;;;5061460;28;20045;-72
2023/10/11 09:07:39;;;;;;;23.58;14.88;;;;;;;;;;5028722;28;20417;-72
2023/10/11 09:10:25;;;;;;;22.75;13.63;;;;;;;;;;5054644;28;20041;-73
2023/10/11 09:12:56;;;;;;;24.20;13.25;;;;;;;;;;5058574;28;20615;-72
2023/10/11 09:15:43;;;;;;;26.95;14.38;;;;;;;;;;5055282;28;20051;-73
2023/10/11 09:18:14;;;;;;;30.93;15.10;;;;;;;;;;5070133;28;20136;-72
2023/10/11 09:21:29;;;;;;;29.38;15.50;;;;;;;;;;5052523;28;20307;-72
2023/10/11 09:23:49;;;;;;;28.40;14.70;;;;;;;;;;5053912;28;20045;-72
2023/10/11 09:26:33;;;;;;;29.85;16.63;;;;;;;;;;5045216;28;20047;-72
2023/10/11 09:29:08;;;;;;;26.20;14.77;;;;;;;;;;5048911;28;20060;-72
2023/10/11 09:31:57;;;;;;;31.95;16.58;;;;;;;;;;5060115;28;20243;-72
2023/10/11 09:34:30;;;;;;;28.80;17.88;;;;;;;;;;5052614;28;20537;-72
2023/10/11 09:36:56;;;;;;;29.63;17.10;;;;;;;;;;5065132;28;20056;-72
2023/10/11 09:39:26;;;;;;;29.90;18.23;;;;;;;;;;5062626;28;20047;-72
2023/10/11 09:42:03;;;;;;;30.15;18.10;;;;;;;;;;5068347;28;20052;-72
2023/10/11 09:44:34;;;;;;;29.08;16.45;;;;;;;;;;5046824;28;20060;-72
2023/10/11 09:47:02;;;;;;;35.03;17.58;;;;;;;;;;5056636;28;20794;-72
2023/10/11 09:49:30;;;;;;;26.67;17.55;;;;;;;;;;5067758;28;20083;-72
2023/10/11 09:52:07;;;;;;;30.83;18.15;;;;;;;;;;5081428;28;20579;-72
2023/10/11 09:54:37;;;;;;;30.45;18.52;;;;;;;;;;5067461;28;20114;-72
2023/10/11 09:57:08;;;;;;;28.75;18.80;;;;;;;;;;5067042;28;20052;-72
2023/10/11 09:59:47;;;;;;;37.78;19.23;;;;;;;;;;5064940;28;20379;-72
2023/10/11 10:02:16;;;;;;;32.20;18.88;;;;;;;;;;5051672;28;20049;-72
2023/10/11 10:04:51;;;;;;;32.33;18.02;;;;;;;;;;5069774;28;20041;-72
2023/10/11 10:10:04;;;;;;;30.60;18.95;;;;;;;;;;5076734;28;20157;-72
2023/10/11 10:12:33;;;;;;;34.63;19.25;;;;;;;;;;5077828;28;20044;-72
2023/10/11 10:15:07;;;;;;;30.15;17.30;;;;;;;;;;5060407;28;20054;-72
2023/10/11 10:17:35;;;;;;;33.65;19.23;;;;;;;;;;5075986;28;20048;-72
2023/10/11 10:20:20;;;;;;;33.17;17.80;;;;;;;;;;5064474;28;20477;-71
2023/10/11 10:23:06;;;;;;;32.33;18.13;;;;;;;;;;5064209;28;20054;-71
2023/10/11 10:25:32;;;;;;;31.88;17.73;;;;;;;;;;5051059;28;20127;-72
2023/10/11 10:27:59;;;;;;;30.15;17.85;;;;;;;;;;5069726;28;20044;-71
2023/10/11 10:30:28;;;;;;;31.15;17.45;;;;;;;;;;5073332;28;20689;-71
2023/10/11 10:33:13;;;;;;;33.03;19.10;;;;;;;;;;5064002;28;20049;-72
2023/10/11 10:35:39;;;;;;;37.95;19.48;;;;;;;;;;5049028;28;20040;-73
2023/10/11 10:38:09;;;;;;;35.13;19.70;;;;;;;;;;5072417;28;20511;-72
2023/10/11 10:40:42;;;;;;;34.58;19.75;;;;;;;;;;5077818;28;20944;-71
2023/10/11 10:43:14;;;;;;;30.92;18.58;;;;;;;;;;5041809;28;20048;-72
2023/10/11 10:45:40;;;;;;;39.17;18.52;;;;;;;;;;5067596;28;20452;-72
2023/10/11 10:48:18;;;;;;;33.20;18.13;;;;;;;;;;5059830;28;20059;-71
2023/10/11 10:51:01;;;;;;;35.25;17.35;;;;;;;;;;5062239;28;20053;-71
2023/10/11 10:53:50;;;;;;;31.58;17.67;;;;;;;;;;5049475;28;20112;-71
2023/10/11 10:56:19;;;;;;;33.80;19.50;;;;;;;;;;5060237;28;20258;-72
2023/10/11 10:58:46;;;;;;;34.67;17.88;;;;;;;;;;5048868;28;20090;-71
2023/10/11 11:01:13;;;;;;;32.55;17.67;;;;;;;;;;5035697;28;20062;-71
2023/10/11 11:03:41;;;;;;;27.20;17.55;;;;;;;;;;5063347;28;20044;-72
2023/10/11 11:06:11;;;;;;;38.92;17.73;;;;;;;;;;5040659;28;20048;-72
2023/10/11 11:08:39;;;;;;;34.38;18.15;;;;;;;;;;5053388;28;20044;-71
2023/10/11 11:11:19;;;;;;;32.78;18.55;;;;;;;;;;5045517;28;20243;-71
2023/10/11 11:13:47;;;;;;;32.80;17.77;;;;;;;;;;5055189;28;20135;-72
2023/10/11 11:16:22;;;;;;;32.83;17.23;;;;;;;;;;5061224;28;20048;-72
2023/10/11 11:18:48;;;;;;;38.15;17.65;;;;;;;;;;5044378;28;20574;-72
2023/10/11 11:21:25;;;;;;;30.83;16.88;;;;;;;;;;5060910;28;20472;-72
2023/10/11 11:23:52;;;;;;;29.17;16.90;;;;;;;;;;5054253;28;20143;-69
2023/10/11 11:26:21;;;;;;;29.00;15.80;;;;;;;;;;5077042;28;20041;-72
2023/10/11 11:29:09;;;;;;;33.88;16.83;;;;;;;;;;5054315;28;20080;-72
2023/10/11 11:31:52;;;;;;;33.47;16.88;;;;;;;;;;5064887;28;20184;-71
2023/10/11 11:34:37;;;;;;;32.72;16.75;;;;;;;;;;5058315;28;20622;-72
2023/10/11 11:37:06;;;;;;;30.48;15.23;;;;;;;;;;5059566;28;20486;-71
2023/10/11 11:39:53;;;;;;;22.45;14.15;;;;;;;;;;5055381;28;20580;-72
2023/10/11 11:42:19;;;;;;;25.92;14.10;;;;;;;;;;5045096;28;20056;-71
2023/10/11 11:44:47;;;;;;;25.83;13.23;;;;;;;;;;5066813;28;20153;-71
2023/10/11 11:47:21;;;;;;;26.63;13.63;;;;;;;;;;5061142;28;20446;-71
2023/10/11 11:49:51;;;;;;;17.20;10.88;;;;;;;;;;5072546;28;20060;-70
2023/10/11 11:52:17;;;;;;;21.65;11.63;;;;;;;;;;5059496;28;20101;-72
2023/10/11 11:54:44;;;;;;;26.48;13.48;;;;;;;;;;5069175;28;20090;-71
2023/10/11 11:57:11;;;;;;;24.70;11.98;;;;;;;;;;5073088;28;20052;-72
2023/10/11 11:59:39;;;;;;;21.45;11.75;;;;;;;;;;5047224;28;20048;-71
2023/10/11 12:02:16;;;;;;;22.33;13.57;;;;;;;;;;5066334;28;20071;-71
2023/10/11 12:04:48;;;;;;;19.52;10.93;;;;;;;;;;5031730;28;20596;-72
2023/10/11 12:07:14;;;;;;;18.73;11.95;;;;;;;;;;5067189;28;20145;-71
2023/10/11 12:09:41;;;;;;;21.20;11.45;;;;;;;;;;5060850;28;20059;-70
2023/10/11 12:12:27;;;;;;;21.08;11.35;;;;;;;;;;5067101;28;20057;-71
2023/10/11 12:14:54;;;;;;;23.25;11.55;;;;;;;;;;5064511;28;20078;-72
2023/10/11 12:17:22;;;;;;;21.73;10.63;;;;;;;;;;5044376;28;20045;-71
2023/10/11 12:19:53;;;;;;;18.98;10.68;;;;;;;;;;5051669;28;20048;-71
2023/10/11 12:22:22;;;;;;;15.93;10.43;;;;;;;;;;5043817;28;20052;-71
2023/10/11 12:24:49;;;;;;;20.27;10.85;;;;;;;;;;5069341;28;20131;-71
2023/10/11 12:27:16;;;;;;;17.70;10.15;;;;;;;;;;5048014;28;20068;-71
2023/10/11 12:29:44;;;;;;;18.77;9.82;;;;;;;;;;5072420;28;20117;-70
2023/10/11 12:32:33;;;;;;;23.98;9.68;;;;;;;;;;5055284;28;20527;-71
2023/10/11 12:35:04;;;;;;;24.27;11.85;;;;;;;;;;5060505;28;20052;-71
2023/10/11 12:37:33;;;;;;;20.65;11.07;;;;;;;;;;5061828;28;20123;-70
2023/10/11 12:40:00;;;;;;;23.52;12.73;;;;;;;;;;5063492;28;20083;-71
2023/10/11 12:42:26;;;;;;;22.77;12.98;;;;;;;;;;5061828;28;20076;-71
2023/10/11 12:44:53;;;;;;;23.33;11.82;;;;;;;;;;5046200;28;20057;-70
2023/10/11 12:47:20;;;;;;;22.17;12.52;;;;;;;;;;5037748;28;20041;-70
2023/10/11 12:49:46;;;;;;;23.02;12.63;;;;;;;;;;5049970;28;20048;-71
2023/10/11 12:52:18;;;;;;;21.88;11.95;;;;;;;;;;5046244;28;20737;-71
2023/10/11 12:54:44;;;;;;;20.10;12.85;;;;;;;;;;5068903;28;20114;-71
2023/10/11 12:57:15;;;;;;;25.77;14.30;;;;;;;;;;5056427;28;20432;-71
2023/10/11 12:59:42;;;;;;;24.25;14.27;;;;;;;;;;5075113;28;20135;-71
2023/10/11 13:02:10;;;;;;;22.45;13.57;;;;;;;;;;5056565;28;20156;-70
2023/10/11 13:04:41;;;;;;;23.95;13.77;;;;;;;;;;5059834;28;20040;-70
2023/10/11 13:07:13;;;;;;;28.58;13.60;;;;;;;;;;5032156;28;20048;-71
2023/10/11 13:09:40;;;;;;;25.45;14.32;;;;;;;;;;5046493;28;20080;-71
2023/10/11 13:12:08;;;;;;;26.05;17.08;;;;;;;;;;5060731;28;20610;-71
2023/10/11 13:14:35;;;;;;;27.38;14.82;;;;;;;;;;5055300;28;20422;-70
2023/10/11 13:17:11;;;;;;;28.10;16.02;;;;;;;;;;5048605;28;20040;-75
2023/10/11 13:19:43;;;;;;;27.55;17.15;;;;;;;;;;5044040;28;20059;-71
2023/10/11 13:22:12;;;;;;;30.20;18.05;;;;;;;;;;5058903;28;20052;-71
2023/10/11 13:24:39;;;;;;;28.23;17.00;;;;;;;;;;5043685;28;20152;-71
2023/10/11 13:27:07;;;;;;;30.98;17.92;;;;;;;;;;5066174;28;20062;-71
2023/10/11 13:29:34;;;;;;;35.15;18.13;;;;;;;;;;5065625;28;20264;-71
2023/10/11 13:32:04;;;;;;;34.70;19.35;;;;;;;;;;5042643;28;20137;-71
2023/10/11 13:34:34;;;;;;;27.38;18.35;;;;;;;;;;5064079;28;20049;-71
2023/10/11 13:37:00;;;;;;;29.02;19.05;;;;;;;;;;5039137;28;20041;-71
2023/10/11 13:39:27;;;;;;;32.35;18.13;;;;;;;;;;5047502;28;20047;-71
2023/10/11 13:41:55;;;;;;;33.10;19.27;;;;;;;;;;5059242;28;20110;-71
2023/10/11 13:44:22;;;;;;;32.38;19.05;;;;;;;;;;5066401;28;20052;-71
2023/10/11 13:46:51;;;;;;;30.42;19.25;;;;;;;;;;5064873;28;20101;-70
2023/10/11 13:49:25;;;;;;;30.98;18.30;;;;;;;;;;5028625;28;20479;-71
2023/10/11 13:51:58;;;;;;;30.67;20.48;;;;;;;;;;5066799;28;20187;-70
2023/10/11 13:57:11;;;;;;;29.92;17.98;;;;;;;;;;5064697;28;20075;-71
2023/10/11 13:59:45;;;;;;;33.13;19.67;;;;;;;;;;5049334;28;20041;-71
2023/10/11 14:04:49;;;;;;;30.80;19.25;;;;;;;;;;5055203;28;20044;-70
2023/10/11 14:09:46;;;;;;;29.67;19.92;;;;;;;;;;5050959;28;20080;-71
2023/10/11 14:12:17;;;;;;;28.60;19.88;;;;;;;;;;5051251;28;20056;-70
2023/10/11 14:14:44;;;;;;;31.70;19.60;;;;;;;;;;5051785;28;20048;-71
2023/10/11 14:17:15;;;;;;;32.53;20.08;;;;;;;;;;5040237;28;20646;-71
2023/10/11 14:19:42;;;;;;;34.15;20.77;;;;;;;;;;5053497;28;20486;-71
2023/10/11 14:22:10;;;;;;;30.38;20.02;;;;;;;;;;5065328;28;20056;-71
2023/10/11 14:24:37;;;;;;;31.88;20.45;;;;;;;;;;5058050;28;20044;-71
2023/10/11 14:27:03;;;;;;;34.00;19.40;;;;;;;;;;5059026;28;20044;-71
2023/10/11 14:29:30;;;;;;;33.92;19.67;;;;;;;;;;5064710;28;20044;-72
2023/10/11 14:31:56;;;;;;;31.48;19.92;;;;;;;;;;5052707;28;20332;-72
2023/10/11 14:34:22;;;;;;;33.47;21.05;;;;;;;;;;5042391;28;20330;-71
2023/10/11 14:36:50;;;;;;;33.25;20.42;;;;;;;;;;5067936;28;20127;-71
2023/10/11 14:39:19;;;;;;;31.80;21.08;;;;;;;;;;5061738;28;20060;-71
2023/10/11 14:41:47;;;;;;;34.58;20.60;;;;;;;;;;5045298;28;20208;-72
2023/10/11 14:44:13;;;;;;;37.70;19.67;;;;;;;;;;5045709;28;20221;-71
2023/10/11 14:46:40;;;;;;;35.08;21.77;;;;;;;;;;5054044;28;20152;-71
2023/10/11 14:49:07;;;;;;;29.13;20.33;;;;;;;;;;5060379;28;20132;-71
2023/10/11 14:51:37;;;;;;;34.55;21.00;;;;;;;;;;5051017;28;20056;-72
2023/10/11 14:54:06;;;;;;;35.75;20.33;;;;;;;;;;5059360;28;20076;-72
2023/10/11 14:56:33;;;;;;;28.38;19.05;;;;;;;;;;5061270;28;20053;-72
2023/10/11 14:59:01;;;;;;;28.85;17.80;;;;;;;;;;5052806;28;20577;-72
2023/10/11 15:01:27;;;;;;;30.75;17.23;;;;;;;;;;5043855;28;20052;-72
2023/10/11 15:04:00;;;;;;;27.15;17.27;;;;;;;;;;5051066;28;20053;-72
2023/10/11 15:06:27;;;;;;;28.88;17.95;;;;;;;;;;5056608;28;20087;-72
2023/10/11 15:08:53;;;;;;;29.63;18.02;;;;;;;;;;5066757;28;20052;-71
2023/10/11 15:11:23;;;;;;;31.63;16.92;;;;;;;;;;5053810;28;20692;-71
2023/10/11 15:13:50;;;;;;;30.17;17.23;;;;;;;;;;5051926;28;20053;-71
2023/10/11 15:16:16;;;;;;;28.52;15.85;;;;;;;;;;5067296;28;20132;-70
2023/10/11 15:18:43;;;;;;;28.45;16.40;;;;;;;;;;5050949;28;20619;-71
2023/10/11 15:21:11;;;;;;;32.95;15.43;;;;;;;;;;5039721;28;20090;-71
2023/10/11 15:23:38;;;;;;;27.95;15.60;;;;;;;;;;5065218;28;20080;-71
2023/10/11 15:26:04;;;;;;;22.85;14.25;;;;;;;;;;5053077;28;20054;-70
2023/10/11 15:28:31;;;;;;;24.40;15.02;;;;;;;;;;5056135;28;20110;-70
2023/10/11 15:31:00;;;;;;;34.63;14.80;;;;;;;;;;5055088;28;20123;-70
2023/10/11 15:33:27;;;;;;;26.52;16.13;;;;;;;;;;5049059;28;20044;-70
2023/10/11 15:35:56;;;;;;;28.70;14.75;;;;;;;;;;5065241;28;20526;-70
2023/10/11 15:38:24;;;;;;;26.02;14.65;;;;;;;;;;5068646;28;20127;-71
2023/10/11 15:41:06;;;;;;;27.58;14.70;;;;;;;;;;5072977;28;20052;-71
2023/10/11 15:43:36;;;;;;;23.95;13.85;;;;;;;;;;5053639;28;20057;-71
2023/10/11 15:46:03;;;;;;;25.73;13.55;;;;;;;;;;5073971;28;20074;-70
2023/10/11 15:48:30;;;;;;;25.92;13.65;;;;;;;;;;5057326;28;20076;-71
2023/10/11 15:51:05;;;;;;;26.63;13.43;;;;;;;;;;5055624;28;20057;-71
2023/10/11 15:53:34;;;;;;;24.92;13.68;;;;;;;;;;5062676;28;20048;-71
2023/10/11 15:56:02;;;;;;;25.65;13.27;;;;;;;;;;5055581;28;20053;-71